Elandra Spruce — V7JM5 — position and weather

sailwx.info

Track history (hours):
 
Tides and Currents Weather Stations Pressure Air Temp Water Temp Dewpoint Dewpoint Depression Visibility Wind Speed Wind Dir Waves Ship Positions

Elandra Spruce

Last reported at 2016-Jun-12 09:24 UTC. Time now 2016-Jun-28 09:53 UTC.
Position N 31°16' E 121°52'.
Warning: this ship's position is 16 days out of date.

Length 183 m; draft 7.2 m.

Type: Tanker. MMSI: 538006719.

Date/timePositionNaut miles runAvg speedWind from/ knotsBaromVisibWave heightAir tempDewpointWater temp
2016-Jun-12 09:24N 31°16' E 121°52'911.1
2016-Jun-12 08:33N 31°20' E 121°42'9 9.2
2016-Jun-12 07:33N 31°24' E 121°32'8 8.5
2016-Jun-12 06:33N 31°30' E 121°25'2110.7
2016-Jun-12 04:33N 31°44' E 121°06'1311.8
2016-Jun-12 03:27N 31°52' E 120°53'6 0.5
2016-Jun-11 15:22N 31°57' E 120°52'1011.4
2016-Jun-11 14:29N 31°60' E 120°40'3 0.1
2016-Jun-10 10:30N 32°00' E 120°36'9 9.8
2016-Jun-10 09:32N 32°01' E 120°48'2412.1
2016-Jun-10 07:31N 31°43' E 121°08'1213.0
2016-Jun-10 06:33N 31°35' E 121°18'1212.3
2016-Jun-10 05:33N 31°26' E 121°29'1110.7
2016-Jun-10 04:33N 31°21' E 121°40'1110.6
2016-Jun-10 03:33N 31°16' E 121°51'  
Track history (hours):
 
Tides and Currents Weather Stations Pressure Air Temp Water Temp Dewpoint Dewpoint Depression Visibility Wind Speed Wind Dir Waves Ship Positions

Elandra Spruce

Last reported at 2016-Jun-12 09:24 UTC. Time now 2016-Jun-28 09:53 UTC.
Position N 31°16' E 121°52'.
Warning: this ship's position is 16 days out of date.

Length 183 m; draft 7.2 m.

Type: Tanker. MMSI: 538006719.

Date/timePositionNaut miles runAvg speedWind from/ knotsBaromVisibWave heightAir tempDewpointWater temp
2016-Jun-12 09:24N 31°16' E 121°52'911.1
2016-Jun-12 08:33N 31°20' E 121°42'9 9.2
2016-Jun-12 07:33N 31°24' E 121°32'8 8.5
2016-Jun-12 06:33N 31°30' E 121°25'2110.7
2016-Jun-12 04:33N 31°44' E 121°06'1311.8
2016-Jun-12 03:27N 31°52' E 120°53'6 0.5
2016-Jun-11 15:22N 31°57' E 120°52'1011.4
2016-Jun-11 14:29N 31°60' E 120°40'3 0.1
2016-Jun-10 10:30N 32°00' E 120°36'9 9.8
2016-Jun-10 09:32N 32°01' E 120°48'2412.1
2016-Jun-10 07:31N 31°43' E 121°08'1213.0
2016-Jun-10 06:33N 31°35' E 121°18'1212.3
2016-Jun-10 05:33N 31°26' E 121°29'1110.7
2016-Jun-10 04:33N 31°21' E 121°40'1110.6
2016-Jun-10 03:33N 31°16' E 121°51'  

Dump ship's entire track history